createdAt,value
2023-03-25T00:01:38.069Z,9.90
2023-03-25T00:04:06.959Z,12.00
2023-03-25T00:06:35.718Z,16.10
2023-03-25T00:09:05.047Z,15.70
2023-03-25T00:11:33.815Z,14.20
2023-03-25T00:14:02.521Z,14.40
2023-03-25T00:16:31.457Z,11.80
2023-03-25T00:19:02.221Z,10.80
2023-03-25T00:21:33.803Z,11.00
2023-03-25T00:24:02.799Z,11.50
2023-03-25T00:26:32.416Z,13.20
2023-03-25T00:29:01.198Z,11.80
2023-03-25T00:31:29.987Z,11.40
2023-03-25T00:34:00.126Z,12.30
2023-03-25T00:36:28.894Z,12.70
2023-03-25T00:38:57.989Z,11.20
2023-03-25T00:41:27.293Z,11.60
2023-03-25T00:43:58.603Z,11.50
2023-03-25T00:46:30.072Z,12.10
2023-03-25T00:51:31.516Z,12.30
2023-03-25T00:54:00.551Z,12.80
2023-03-25T00:56:30.962Z,12.00
2023-03-25T00:58:59.902Z,12.70
2023-03-25T01:01:29.292Z,11.60
2023-03-25T01:04:00.906Z,12.40
2023-03-25T01:06:35.185Z,11.90
2023-03-25T01:09:07.192Z,12.50
2023-03-25T01:11:38.548Z,12.00
2023-03-25T01:14:11.644Z,10.80
2023-03-25T01:16:40.752Z,11.70
2023-03-25T01:19:09.952Z,11.70
2023-03-25T01:21:38.859Z,11.30
2023-03-25T01:24:08.942Z,10.30
2023-03-25T01:26:38.265Z,11.20
2023-03-25T01:29:08.077Z,10.30
2023-03-25T01:31:37.002Z,10.60
2023-03-25T01:34:06.090Z,10.50
2023-03-25T01:36:36.391Z,11.90
2023-03-25T01:39:05.997Z,11.10
2023-03-25T01:41:49.263Z,10.60
2023-03-25T01:44:24.745Z,10.70
2023-03-25T01:46:54.402Z,10.50
2023-03-25T01:49:31.409Z,10.70
2023-03-25T01:52:05.653Z,12.30
2023-03-25T01:54:35.193Z,11.80
2023-03-25T01:57:03.816Z,10.90
2023-03-25T01:59:33.206Z,12.50
2023-03-25T02:02:06.840Z,10.40
2023-03-25T02:05:02.663Z,11.20
2023-03-25T02:07:35.514Z,10.70
2023-03-25T02:10:08.014Z,11.40
2023-03-25T02:12:36.866Z,11.40
2023-03-25T02:15:07.921Z,11.50
2023-03-25T02:18:06.210Z,12.10
2023-03-25T02:20:43.896Z,11.00
2023-03-25T02:23:58.539Z,11.70
2023-03-25T02:26:36.771Z,11.50
2023-03-25T02:29:24.484Z,11.10
2023-03-25T02:32:19.083Z,11.80
2023-03-25T02:35:27.640Z,12.00
2023-03-25T02:38:30.284Z,11.90
2023-03-25T02:41:37.679Z,12.20
2023-03-25T02:44:30.437Z,11.40
2023-03-25T02:49:33.024Z,11.40
2023-03-25T02:52:09.966Z,12.40
2023-03-25T02:54:41.673Z,11.90
2023-03-25T02:59:41.314Z,11.70
2023-03-25T03:02:11.941Z,12.20
2023-03-25T03:04:48.907Z,12.80
2023-03-25T03:07:25.892Z,11.80
2023-03-25T03:10:05.545Z,13.30
2023-03-25T03:12:54.595Z,13.10
2023-03-25T03:15:33.309Z,13.00
2023-03-25T03:18:20.914Z,12.70
2023-03-25T03:21:10.933Z,13.10
2023-03-25T03:24:02.566Z,12.50
2023-03-25T03:27:24.093Z,12.00
2023-03-25T03:30:04.751Z,11.90
2023-03-25T03:32:50.148Z,13.00
2023-03-25T03:35:44.158Z,12.60
2023-03-25T03:38:16.505Z,11.60
2023-03-25T03:40:51.381Z,10.80
2023-03-25T03:43:31.684Z,12.90
2023-03-25T03:46:05.033Z,12.80
2023-03-25T03:48:46.458Z,12.70
2023-03-25T03:51:25.176Z,12.20
2023-03-25T03:54:01.143Z,11.80
2023-03-25T03:56:37.511Z,12.00
2023-03-25T03:59:13.200Z,12.50
2023-03-25T04:01:46.474Z,11.70
2023-03-25T04:04:20.562Z,11.80
2023-03-25T04:06:58.569Z,11.60
2023-03-25T04:09:41.456Z,11.60
2023-03-25T04:12:21.441Z,11.30
2023-03-25T04:14:49.891Z,11.20
2023-03-25T04:17:18.262Z,11.50
2023-03-25T04:19:49.183Z,10.80
2023-03-25T04:22:18.847Z,10.70
2023-03-25T04:24:50.122Z,10.90
2023-03-25T04:27:20.213Z,11.20
2023-03-25T04:29:49.656Z,10.60
2023-03-25T04:32:18.833Z,10.80
2023-03-25T04:34:47.478Z,10.50
2023-03-25T04:37:15.973Z,10.70
2023-03-25T04:39:44.468Z,10.60
2023-03-25T04:42:14.009Z,10.90
2023-03-25T04:44:42.559Z,10.90
2023-03-25T04:47:16.427Z,10.60
2023-03-25T04:49:45.424Z,10.60
2023-03-25T04:52:13.941Z,11.00
2023-03-25T04:54:42.526Z,11.40
2023-03-25T04:57:11.203Z,10.00
2023-03-25T04:59:39.702Z,10.70
2023-03-25T05:02:13.781Z,11.10
2023-03-25T05:04:43.214Z,11.70
2023-03-25T05:07:11.795Z,11.20
2023-03-25T05:09:40.290Z,12.70
2023-03-25T05:12:11.714Z,13.10
2023-03-25T05:14:40.211Z,12.20
2023-03-25T05:17:08.896Z,11.60
2023-03-25T05:19:44.028Z,11.10
2023-03-25T05:22:13.518Z,10.40
2023-03-25T05:24:45.275Z,9.70
2023-03-25T05:27:13.882Z,10.00
2023-03-25T05:29:44.828Z,9.80
2023-03-25T05:32:17.821Z,9.60
2023-03-25T05:34:49.553Z,8.90
2023-03-25T05:37:18.148Z,9.80
2023-03-25T05:39:46.448Z,9.10
2023-03-25T05:42:15.527Z,8.90
2023-03-25T05:44:47.186Z,10.70
2023-03-25T05:47:15.667Z,9.60
2023-03-25T05:49:44.150Z,9.50
2023-03-25T05:52:13.118Z,9.40
2023-03-25T05:54:42.449Z,8.90
2023-03-25T05:57:11.824Z,9.20
2023-03-25T05:59:41.026Z,8.30
2023-03-25T06:02:15.166Z,8.40
2023-03-25T06:04:44.976Z,8.50
2023-03-25T06:07:20.181Z,8.40
2023-03-25T06:09:54.453Z,8.20
2023-03-25T06:12:24.658Z,8.70
2023-03-25T06:14:54.471Z,8.20
2023-03-25T06:17:24.345Z,8.50
2023-03-25T06:19:53.143Z,9.30
2023-03-25T06:22:22.455Z,9.50
2023-03-25T06:24:52.603Z,8.60
2023-03-25T06:27:21.613Z,8.80
2023-03-25T06:29:50.286Z,8.70
2023-03-25T06:32:18.768Z,9.00
2023-03-25T06:34:47.320Z,8.70
2023-03-25T06:37:15.935Z,8.20
2023-03-25T06:39:50.150Z,8.00
2023-03-25T06:42:21.809Z,8.70
2023-03-25T06:45:19.066Z,8.70
2023-03-25T06:48:01.307Z,8.20
2023-03-25T06:50:29.959Z,7.70
2023-03-25T06:52:58.962Z,6.80
2023-03-25T06:55:27.694Z,7.70
2023-03-25T06:57:57.557Z,7.70
2023-03-25T07:00:27.272Z,7.50
2023-03-25T07:02:58.915Z,7.90
2023-03-25T07:05:27.438Z,7.60
2023-03-25T07:07:56.204Z,8.00
2023-03-25T07:10:24.578Z,7.10
2023-03-25T07:12:53.068Z,7.40
2023-03-25T07:15:21.666Z,7.80
2023-03-25T07:17:50.877Z,7.80
2023-03-25T07:20:19.855Z,7.30
2023-03-25T07:22:48.427Z,7.60
2023-03-25T07:25:17.431Z,7.40
2023-03-25T07:27:46.107Z,7.50
2023-03-25T07:30:18.182Z,8.80
2023-03-25T07:32:47.040Z,7.10
2023-03-25T07:35:29.323Z,6.90
2023-03-25T07:37:58.172Z,7.70
2023-03-25T07:40:26.546Z,8.10
2023-03-25T07:42:55.154Z,8.20
2023-03-25T07:45:26.310Z,8.20
2023-03-25T07:47:54.924Z,7.10
2023-03-25T07:50:25.452Z,6.90
2023-03-25T07:55:24.103Z,7.60
2023-03-25T07:57:52.535Z,8.00
2023-03-25T08:00:21.473Z,7.40
2023-03-25T08:02:49.897Z,7.30
2023-03-25T08:05:21.820Z,7.50
2023-03-25T08:07:51.573Z,8.40
2023-03-25T08:10:20.452Z,8.50
2023-03-25T08:12:52.389Z,8.60
2023-03-25T08:15:24.742Z,8.10
2023-03-25T08:17:53.405Z,8.30
2023-03-25T08:20:22.343Z,7.40
2023-03-25T08:22:51.639Z,7.40
2023-03-25T08:25:20.120Z,8.70
2023-03-25T08:27:48.703Z,7.50
2023-03-25T08:30:17.498Z,7.90
2023-03-25T08:32:55.127Z,7.10
2023-03-25T08:35:24.491Z,8.60
2023-03-25T08:37:52.988Z,7.80
2023-03-25T08:40:22.174Z,9.20
2023-03-25T08:42:50.659Z,8.00
2023-03-25T08:45:19.657Z,9.30
2023-03-25T08:47:48.012Z,7.90
2023-03-25T08:50:16.753Z,9.30
2023-03-25T08:52:46.337Z,8.00
2023-03-25T08:55:16.553Z,7.10
2023-03-25T08:57:45.454Z,9.60
2023-03-25T09:00:14.961Z,8.20
2023-03-25T09:02:44.439Z,7.70
2023-03-25T09:05:13.757Z,8.30
2023-03-25T09:07:43.385Z,7.60
2023-03-25T09:10:13.392Z,8.70
2023-03-25T09:12:41.879Z,8.00
2023-03-25T09:15:12.211Z,9.20
2023-03-25T09:17:43.228Z,8.20
2023-03-25T09:20:12.852Z,7.00
2023-03-25T09:22:41.747Z,7.10
2023-03-25T09:25:11.562Z,7.60
2023-03-25T09:27:40.872Z,7.90
2023-03-25T09:30:10.637Z,7.80
2023-03-25T09:32:39.569Z,7.70
2023-03-25T09:35:08.978Z,7.70
2023-03-25T09:37:38.068Z,10.10
2023-03-25T09:40:08.579Z,7.00
2023-03-25T09:42:58.695Z,7.50
2023-03-25T09:45:56.675Z,7.30
2023-03-25T09:48:36.733Z,7.30
2023-03-25T09:51:12.266Z,7.80
2023-03-25T09:53:50.963Z,8.30
2023-03-25T09:56:29.153Z,7.60
2023-03-25T09:59:05.158Z,7.40
2023-03-25T10:01:49.189Z,7.70
2023-03-25T10:04:56.199Z,7.00
2023-03-25T10:07:50.734Z,5.60
2023-03-25T10:10:38.215Z,5.00
2023-03-25T10:13:29.952Z,5.50
2023-03-25T10:16:26.964Z,6.10
2023-03-25T10:19:15.858Z,5.70
2023-03-25T10:21:54.492Z,5.80
2023-03-25T10:24:28.474Z,5.50
2023-03-25T10:27:03.343Z,6.50
2023-03-25T10:29:34.367Z,6.90
2023-03-25T10:32:11.664Z,5.80
2023-03-25T10:34:47.006Z,5.50
2023-03-25T10:37:21.849Z,6.00
2023-03-25T10:39:51.927Z,5.70
2023-03-25T10:42:36.216Z,6.30
2023-03-25T10:45:16.687Z,6.30
2023-03-25T10:47:47.675Z,6.90
2023-03-25T10:50:17.831Z,6.60
2023-03-25T10:52:51.962Z,8.00
2023-03-25T10:55:27.435Z,7.90
2023-03-25T10:57:57.027Z,9.00
2023-03-25T11:00:27.982Z,8.80
2023-03-25T11:02:57.749Z,9.90
2023-03-25T11:05:29.629Z,9.80
2023-03-25T11:08:14.627Z,9.40
2023-03-25T11:10:57.469Z,9.90
2023-03-25T11:13:31.015Z,9.60
2023-03-25T11:16:03.496Z,8.30
2023-03-25T11:18:42.225Z,8.50
2023-03-25T11:21:13.665Z,7.90
2023-03-25T11:23:48.459Z,7.30
2023-03-25T11:26:21.718Z,7.00
2023-03-25T11:28:54.534Z,7.10
2023-03-25T11:31:26.160Z,6.40
2023-03-25T11:34:22.597Z,7.10
2023-03-25T11:36:55.889Z,7.20
2023-03-25T11:39:24.345Z,6.20
2023-03-25T11:41:53.032Z,7.30
2023-03-25T11:44:31.857Z,5.90
2023-03-25T11:47:12.220Z,6.50
2023-03-25T11:49:41.934Z,7.10
2023-03-25T11:52:47.220Z,6.20
2023-03-25T11:55:20.414Z,5.80
2023-03-25T11:57:51.198Z,6.90
2023-03-25T12:00:29.314Z,4.90
2023-03-25T12:03:21.938Z,6.60
2023-03-25T12:06:05.157Z,5.60
2023-03-25T12:08:51.202Z,6.70
2023-03-25T12:11:22.304Z,6.40
2023-03-25T12:14:26.265Z,6.20
2023-03-25T12:17:09.688Z,6.10
2023-03-25T12:20:02.646Z,6.20
2023-03-25T12:22:47.196Z,6.30
2023-03-25T12:25:26.632Z,6.10
2023-03-25T12:28:13.760Z,5.50
2023-03-25T12:32:00.169Z,6.40
2023-03-25T12:35:01.424Z,6.40
2023-03-25T12:37:52.126Z,6.40
2023-03-25T12:40:48.377Z,5.90
2023-03-25T12:43:30.769Z,6.30
2023-03-25T12:46:02.593Z,15.50
2023-03-25T12:48:39.411Z,14.80
2023-03-25T12:51:21.520Z,13.80
2023-03-25T12:54:12.008Z,7.00
2023-03-25T12:56:49.348Z,5.70
2023-03-25T12:59:30.070Z,7.10
2023-03-25T13:02:27.473Z,5.00
2023-03-25T13:05:03.195Z,5.30
2023-03-25T13:07:43.241Z,5.50
2023-03-25T13:10:21.053Z,5.50
2023-03-25T13:12:54.305Z,5.10
2023-03-25T13:15:47.495Z,5.50
2023-03-25T13:18:26.330Z,5.00
2023-03-25T13:21:13.740Z,4.60
2023-03-25T13:23:45.828Z,4.80
2023-03-25T13:26:21.660Z,4.80
2023-03-25T13:28:59.332Z,4.90
2023-03-25T13:31:35.924Z,4.90
2023-03-25T13:34:20.192Z,5.00
2023-03-25T13:36:57.482Z,5.10
2023-03-25T13:39:39.172Z,5.10
2023-03-25T13:42:18.125Z,5.00
2023-03-25T13:44:51.109Z,5.60
2023-03-25T13:47:45.044Z,5.10
2023-03-25T13:50:31.888Z,5.20
2023-03-25T13:53:14.019Z,5.50
2023-03-25T13:55:49.716Z,5.50
2023-03-25T13:58:28.868Z,5.00
2023-03-25T14:01:28.875Z,5.10
2023-03-25T14:04:16.113Z,4.90
2023-03-25T14:07:15.109Z,5.20
2023-03-25T14:10:02.419Z,5.00
2023-03-25T14:12:38.394Z,4.70
2023-03-25T14:15:13.159Z,4.40
2023-03-25T14:17:45.914Z,3.60
2023-03-25T14:20:45.316Z,4.10
2023-03-25T14:23:18.966Z,4.10
2023-03-25T14:25:54.473Z,4.10
2023-03-25T14:28:57.366Z,4.20
2023-03-25T14:31:31.982Z,4.10
2023-03-25T14:34:04.406Z,4.60
2023-03-25T14:36:42.492Z,4.30
2023-03-25T14:39:35.319Z,3.60
2023-03-25T14:42:07.197Z,3.80
2023-03-25T14:44:42.622Z,4.60
2023-03-25T14:47:16.386Z,4.30
2023-03-25T14:49:51.365Z,4.50
2023-03-25T14:52:29.071Z,4.00
2023-03-25T14:55:00.199Z,4.20
2023-03-25T15:00:14.106Z,4.50
2023-03-25T15:02:50.006Z,4.80
2023-03-25T15:05:26.706Z,5.00
2023-03-25T15:08:00.415Z,5.10
2023-03-25T15:10:39.243Z,4.50
2023-03-25T15:13:21.706Z,4.20
2023-03-25T15:15:52.447Z,4.50
2023-03-25T15:18:38.997Z,4.60
2023-03-25T15:21:14.051Z,4.20
2023-03-25T15:23:42.508Z,4.50
2023-03-25T15:26:27.068Z,4.70
2023-03-25T15:29:17.567Z,4.60
2023-03-25T15:32:25.018Z,5.10
2023-03-25T15:35:16.031Z,4.70
2023-03-25T15:37:46.826Z,5.00
2023-03-25T15:41:02.293Z,5.10
2023-03-25T15:44:10.820Z,5.50
2023-03-25T15:46:56.202Z,5.40
2023-03-25T15:49:31.034Z,5.70
2023-03-25T15:52:15.287Z,4.40
2023-03-25T15:54:56.545Z,5.00
2023-03-25T15:57:41.230Z,4.90
2023-03-25T16:00:32.757Z,4.80
2023-03-25T16:03:10.858Z,4.20
2023-03-25T16:05:47.474Z,4.40
2023-03-25T16:08:41.714Z,4.40
2023-03-25T16:11:19.517Z,4.10
2023-03-25T16:14:01.119Z,3.90
2023-03-25T16:16:34.996Z,4.20
2023-03-25T16:19:09.338Z,4.10
2023-03-25T16:21:38.435Z,4.20
2023-03-25T16:24:09.497Z,4.20
2023-03-25T16:26:48.397Z,4.70
2023-03-25T16:29:23.339Z,4.50
2023-03-25T16:32:00.399Z,4.70
2023-03-25T16:34:35.561Z,4.60
2023-03-25T16:37:06.476Z,4.50
2023-03-25T16:39:37.334Z,5.00
2023-03-25T16:42:27.641Z,4.70
2023-03-25T16:44:56.315Z,4.90
2023-03-25T16:47:25.432Z,5.50
2023-03-25T16:49:56.540Z,5.50
2023-03-25T16:52:32.426Z,6.00
2023-03-25T16:55:00.789Z,6.40
2023-03-25T16:57:34.192Z,5.70
2023-03-25T17:00:17.651Z,5.30
2023-03-25T17:02:51.521Z,5.20
2023-03-25T17:05:24.061Z,4.80
2023-03-25T17:08:04.244Z,5.10
2023-03-25T17:10:44.230Z,5.00
2023-03-25T17:13:23.231Z,4.80
2023-03-25T17:15:53.149Z,4.80
2023-03-25T17:18:29.019Z,4.70
2023-03-25T17:21:00.555Z,4.60
2023-03-25T17:23:37.991Z,4.70
2023-03-25T17:26:08.693Z,4.80
2023-03-25T17:28:45.285Z,5.10
2023-03-25T17:31:28.519Z,5.30
2023-03-25T17:34:20.440Z,4.90
2023-03-25T17:39:33.784Z,4.70
2023-03-25T17:42:06.163Z,4.80
2023-03-25T17:44:40.155Z,4.90
2023-03-25T17:47:15.170Z,5.10
2023-03-25T17:49:43.793Z,5.10
2023-03-25T17:52:13.097Z,5.00
2023-03-25T17:54:41.682Z,4.80
2023-03-25T17:57:16.717Z,5.20
2023-03-25T17:59:45.711Z,5.50
2023-03-25T18:02:16.188Z,6.10
2023-03-25T18:04:44.725Z,6.10
2023-03-25T18:07:13.729Z,5.50
2023-03-25T18:09:42.709Z,5.50
2023-03-25T18:12:11.812Z,5.10
2023-03-25T18:14:40.629Z,5.80
2023-03-25T18:17:12.607Z,5.60
2023-03-25T18:19:42.288Z,5.50
2023-03-25T18:22:22.445Z,5.50
2023-03-25T18:24:51.422Z,5.70
2023-03-25T18:27:23.783Z,5.70
2023-03-25T18:29:56.686Z,5.90
2023-03-25T18:32:25.184Z,5.80
2023-03-25T18:34:53.745Z,5.50
2023-03-25T18:37:22.189Z,6.10
2023-03-25T18:39:51.128Z,6.70
2023-03-25T18:42:19.608Z,6.10
2023-03-25T18:44:49.669Z,6.30
2023-03-25T18:47:20.584Z,5.50
2023-03-25T18:49:55.716Z,6.00
2023-03-25T18:52:24.603Z,5.60
2023-03-25T18:54:53.186Z,5.20
2023-03-25T18:57:24.426Z,5.20
2023-03-25T18:59:52.914Z,5.20
2023-03-25T19:02:21.616Z,5.30
2023-03-25T19:05:00.299Z,5.70
2023-03-25T19:07:30.248Z,5.00
2023-03-25T19:09:58.868Z,6.00
2023-03-25T19:12:27.409Z,5.00
2023-03-25T19:14:56.297Z,5.20
2023-03-25T19:17:25.708Z,5.50
2023-03-25T19:19:54.284Z,4.80
2023-03-25T19:22:24.922Z,5.00
2023-03-25T19:24:53.259Z,5.60
2023-03-25T19:27:21.989Z,4.90
2023-03-25T19:29:50.702Z,5.20
2023-03-25T19:32:19.102Z,5.40
2023-03-25T19:34:51.631Z,5.30
2023-03-25T19:37:20.375Z,5.70
2023-03-25T19:39:49.927Z,5.00
2023-03-25T19:42:18.310Z,5.40
2023-03-25T19:44:47.377Z,5.10
2023-03-25T19:47:15.786Z,5.30
2023-03-25T19:49:46.106Z,4.90
2023-03-25T19:52:15.002Z,5.30
2023-03-25T19:54:43.588Z,5.70
2023-03-25T19:57:12.123Z,5.90
2023-03-25T19:59:41.472Z,5.60
2023-03-25T20:02:15.405Z,5.70
2023-03-25T20:04:44.171Z,5.90
2023-03-25T20:07:12.543Z,6.00
2023-03-25T20:09:43.799Z,5.90
2023-03-25T20:12:12.897Z,7.10
2023-03-25T20:14:41.135Z,7.70
2023-03-25T20:17:09.658Z,8.60
2023-03-25T20:19:38.567Z,8.40
2023-03-25T20:22:21.980Z,9.40
2023-03-25T20:24:56.302Z,8.70
2023-03-25T20:27:24.794Z,8.60
2023-03-25T20:29:53.270Z,7.00
2023-03-25T20:32:30.657Z,7.20
2023-03-25T20:35:06.838Z,7.10
2023-03-25T20:37:37.351Z,7.10
2023-03-25T20:40:11.632Z,7.40
2023-03-25T20:42:42.305Z,7.00
2023-03-25T20:45:14.155Z,7.30
2023-03-25T20:47:43.948Z,7.20
2023-03-25T20:50:15.062Z,6.60
2023-03-25T20:52:44.150Z,7.20
2023-03-25T20:55:13.421Z,6.70
2023-03-25T20:57:41.812Z,6.50
2023-03-25T21:00:18.293Z,6.90
2023-03-25T21:02:48.074Z,6.70
2023-03-25T21:05:16.675Z,6.70
2023-03-25T21:07:45.635Z,7.10
2023-03-25T21:10:15.198Z,7.00
2023-03-25T21:12:44.899Z,7.00
2023-03-25T21:15:17.481Z,6.90
2023-03-25T21:17:46.255Z,6.50
2023-03-25T21:20:14.725Z,6.20
2023-03-25T21:22:44.720Z,6.80
2023-03-25T21:25:15.191Z,6.70
2023-03-25T21:27:45.461Z,7.10
2023-03-25T21:30:15.491Z,6.90
2023-03-25T21:32:44.134Z,6.90
2023-03-25T21:35:12.550Z,7.80
2023-03-25T21:37:41.452Z,6.90
2023-03-25T21:40:12.139Z,7.10
2023-03-25T21:42:41.745Z,7.60
2023-03-25T21:45:13.848Z,7.20
2023-03-25T21:47:44.117Z,7.30
2023-03-25T21:50:15.161Z,7.50
2023-03-25T21:52:47.646Z,6.80
2023-03-25T21:55:18.059Z,7.30
2023-03-25T21:57:48.004Z,7.90
2023-03-25T22:00:18.313Z,7.80
2023-03-25T22:02:47.686Z,7.60
2023-03-25T22:05:17.524Z,7.20
2023-03-25T22:07:45.901Z,7.90
2023-03-25T22:10:14.579Z,7.70
2023-03-25T22:12:43.069Z,8.70
2023-03-25T22:15:11.746Z,8.80
2023-03-25T22:17:40.360Z,8.10
2023-03-25T22:20:10.373Z,7.90
2023-03-25T22:22:39.358Z,8.60
2023-03-25T22:25:09.341Z,8.40
2023-03-25T22:27:37.850Z,8.60
2023-03-25T22:30:08.449Z,7.80
2023-03-25T22:32:37.359Z,7.40
2023-03-25T22:35:06.513Z,8.20
2023-03-25T22:37:37.167Z,7.70
2023-03-25T22:40:08.855Z,8.00
2023-03-25T22:42:37.750Z,8.30
2023-03-25T22:45:07.260Z,7.50
2023-03-25T22:47:35.754Z,7.50
2023-03-25T22:50:05.140Z,7.40
2023-03-25T22:52:33.823Z,7.80
2023-03-25T22:55:02.427Z,7.40
2023-03-25T22:57:31.368Z,7.40
2023-03-25T22:59:59.991Z,7.40
2023-03-25T23:02:28.759Z,7.30
2023-03-25T23:04:57.878Z,6.30
2023-03-25T23:07:26.772Z,6.90
2023-03-25T23:09:55.152Z,7.30
2023-03-25T23:12:25.786Z,7.10
2023-03-25T23:14:56.321Z,6.30
2023-03-25T23:17:25.737Z,6.50
2023-03-25T23:19:54.759Z,6.40
2023-03-25T23:22:24.946Z,7.20
2023-03-25T23:24:53.731Z,7.10
2023-03-25T23:27:24.568Z,7.10
2023-03-25T23:29:53.348Z,7.00
2023-03-25T23:32:21.856Z,6.60
2023-03-25T23:34:50.630Z,7.00
2023-03-25T23:37:19.232Z,7.40
2023-03-25T23:39:48.030Z,7.30
2023-03-25T23:42:16.605Z,7.00
2023-03-25T23:44:45.681Z,6.60
2023-03-25T23:47:14.473Z,7.10
2023-03-25T23:49:44.600Z,6.90
2023-03-25T23:52:13.801Z,6.50
2023-03-25T23:54:43.305Z,6.90
2023-03-25T23:57:12.031Z,6.60
2023-03-25T23:59:40.984Z,7.10
